createdAt,value
2019-05-21T00:00:36.437Z,100201.03
2019-05-21T00:03:26.667Z,100202.22
2019-05-21T00:06:16.774Z,100189.61
2019-05-21T00:09:07.307Z,100188.31
2019-05-21T00:11:57.455Z,100198.19
2019-05-21T00:14:47.936Z,100198.18
2019-05-21T00:17:38.403Z,100189.37
2019-05-21T00:20:29.667Z,100191.65
2019-05-21T00:23:20.060Z,100191.16
2019-05-21T00:26:10.224Z,100192.83
2019-05-21T00:29:36.356Z,100198.31
2019-05-21T00:33:02.369Z,100195.92
2019-05-21T00:36:30.432Z,100204.41
2019-05-21T00:39:56.647Z,100208.85
2019-05-21T00:42:46.976Z,100213.27
2019-05-21T00:45:37.190Z,100215.80
2019-05-21T00:48:27.433Z,100226.82
2019-05-21T00:51:17.372Z,100243.63
2019-05-21T00:54:07.522Z,100246.16
2019-05-21T00:56:57.876Z,100257.17
2019-05-21T00:59:48.129Z,100269.69
2019-05-21T01:02:38.427Z,100270.52
2019-05-21T01:05:28.771Z,100266.80
2019-05-21T01:08:18.783Z,100269.84
2019-05-21T01:11:08.792Z,100268.16
2019-05-21T01:13:58.759Z,100269.19
2019-05-21T01:16:49.207Z,100268.98
2019-05-21T01:19:39.267Z,100267.81
2019-05-21T01:22:29.610Z,100261.55
2019-05-21T01:25:19.937Z,100262.05
2019-05-21T01:28:11.231Z,100259.39
2019-05-21T01:31:01.445Z,100260.58
2019-05-21T01:33:52.712Z,100263.47
2019-05-21T01:36:42.923Z,100258.08
2019-05-21T01:39:32.943Z,100252.03
2019-05-21T01:42:23.162Z,100243.93
2019-05-21T01:45:13.547Z,100244.23
2019-05-21T01:48:03.819Z,100235.97
2019-05-21T01:50:54.259Z,100235.59
2019-05-21T01:53:44.677Z,100236.45
2019-05-21T01:56:34.989Z,100232.73
2019-05-21T01:59:25.360Z,100241.70
2019-05-21T02:02:15.377Z,100248.83
2019-05-21T02:05:06.002Z,100246.97
2019-05-21T02:07:56.738Z,100248.32
2019-05-21T02:10:46.887Z,100255.09
2019-05-21T02:13:37.091Z,100264.92
2019-05-21T02:16:27.283Z,100267.30
2019-05-21T02:19:17.788Z,100270.34
2019-05-21T02:22:08.319Z,100263.58
2019-05-21T02:24:58.570Z,100268.66
2019-05-21T02:27:48.786Z,100270.67
2019-05-21T02:30:39.039Z,100263.06
2019-05-21T02:33:29.216Z,100266.12
2019-05-21T02:36:19.462Z,100263.55
2019-05-21T02:39:09.448Z,100260.84
2019-05-21T02:41:59.768Z,100260.52
2019-05-21T02:44:54.061Z,100255.43
2019-05-21T02:47:42.182Z,100262.20
2019-05-21T02:50:32.500Z,100259.19
2019-05-21T02:53:22.955Z,100257.45
2019-05-21T02:56:13.236Z,100268.11
2019-05-21T02:59:03.493Z,100264.41
2019-05-21T03:02:12.363Z,100257.29
2019-05-21T03:05:02.210Z,100262.05
2019-05-21T03:07:52.123Z,100262.70
2019-05-21T03:10:42.486Z,100264.77
2019-05-21T03:13:33.595Z,100267.27
2019-05-21T03:16:23.895Z,100273.05
2019-05-21T03:19:16.654Z,100273.72
2019-05-21T03:22:06.173Z,100276.77
2019-05-21T03:24:56.428Z,100276.25
2019-05-21T03:27:46.781Z,100279.11
2019-05-21T03:30:37.318Z,100280.61
2019-05-21T03:33:27.976Z,100285.19
2019-05-21T03:36:32.376Z,100284.15
2019-05-21T03:39:09.684Z,100282.80
2019-05-21T03:41:59.812Z,100284.48
2019-05-21T03:44:59.636Z,100290.55
2019-05-21T03:47:41.586Z,100284.75
2019-05-21T03:50:31.917Z,100290.85
2019-05-21T03:53:22.082Z,100285.87
2019-05-21T03:56:12.208Z,100288.17
2019-05-21T03:59:02.574Z,100287.78
2019-05-21T04:01:52.940Z,100285.62
2019-05-21T04:04:43.254Z,100286.67
2019-05-21T04:07:33.602Z,100291.05
2019-05-21T04:10:24.178Z,100286.17
2019-05-21T04:13:14.514Z,100292.65
2019-05-21T04:16:20.709Z,100289.31
2019-05-21T04:19:14.409Z,100294.37
2019-05-21T04:22:04.672Z,100298.73
2019-05-21T04:24:54.917Z,100300.98
2019-05-21T04:27:45.755Z,100303.74
2019-05-21T04:30:36.528Z,100300.95
2019-05-21T04:33:27.105Z,100311.23
2019-05-21T04:36:17.932Z,100318.22
2019-05-21T04:39:08.902Z,100312.71
2019-05-21T04:41:59.720Z,100315.89
2019-05-21T04:44:50.451Z,100325.13
2019-05-21T04:47:41.537Z,100329.95
2019-05-21T04:50:32.391Z,100329.95
2019-05-21T04:53:23.373Z,100316.66
2019-05-21T04:56:18.366Z,100316.66
2019-05-21T04:59:10.486Z,100331.38
2019-05-21T05:02:01.486Z,100339.16
2019-05-21T05:04:52.131Z,100341.20
2019-05-21T05:07:42.847Z,100334.77
2019-05-21T05:10:33.414Z,100343.30
2019-05-21T05:13:23.860Z,100351.91
2019-05-21T05:16:14.795Z,100349.45
2019-05-21T05:19:05.568Z,100351.08
2019-05-21T05:21:56.195Z,100351.08
2019-05-21T05:24:46.722Z,100351.72
2019-05-21T05:27:37.645Z,100359.34
2019-05-21T05:30:28.637Z,100355.59
2019-05-21T05:33:19.504Z,100355.73
2019-05-21T05:36:09.985Z,100354.12
2019-05-21T05:39:00.985Z,100355.00
2019-05-21T05:41:51.719Z,100352.87
2019-05-21T05:44:42.405Z,100353.83
2019-05-21T05:47:33.766Z,100359.88
2019-05-21T05:50:26.741Z,100361.73
2019-05-21T05:53:16.975Z,100360.21
2019-05-21T05:56:07.619Z,100370.02
2019-05-21T05:58:58.110Z,100372.62
2019-05-21T06:01:48.690Z,100369.05
2019-05-21T06:04:38.950Z,100373.67
2019-05-21T06:07:29.257Z,100370.37
2019-05-21T06:10:19.793Z,100371.78
2019-05-21T06:13:10.518Z,100371.95
2019-05-21T06:16:01.086Z,100373.41
2019-05-21T06:18:51.841Z,100377.22
2019-05-21T06:21:42.422Z,100375.41
2019-05-21T06:24:33.116Z,100383.48
2019-05-21T06:27:23.569Z,100388.55
2019-05-21T06:30:14.105Z,100389.08
2019-05-21T06:33:04.644Z,100399.26
2019-05-21T06:35:55.084Z,100400.30
2019-05-21T06:38:45.391Z,100397.77
2019-05-21T06:41:36.013Z,100410.03
2019-05-21T06:44:26.523Z,100401.55
2019-05-21T06:47:16.920Z,100401.49
2019-05-21T06:50:07.263Z,100404.98
2019-05-21T06:52:57.931Z,100409.93
2019-05-21T06:55:49.837Z,100417.19
2019-05-21T06:58:40.302Z,100413.91
2019-05-21T07:01:30.942Z,100424.55
2019-05-21T07:04:21.277Z,100409.08
2019-05-21T07:07:11.834Z,100407.78
2019-05-21T07:10:03.243Z,100403.78
2019-05-21T07:12:53.471Z,100407.67
2019-05-21T07:15:43.833Z,100406.11
2019-05-21T07:18:34.174Z,100394.06
2019-05-21T07:21:25.062Z,100396.03
2019-05-21T07:24:15.373Z,100390.81
2019-05-21T07:27:06.007Z,100385.64
2019-05-21T07:29:56.844Z,100380.89
2019-05-21T07:32:47.599Z,100381.69
2019-05-21T07:35:38.232Z,100378.30
2019-05-21T07:38:28.762Z,100371.19
2019-05-21T07:41:20.322Z,100375.47
2019-05-21T07:44:10.880Z,100375.47
2019-05-21T07:47:01.678Z,100376.06
2019-05-21T07:49:52.676Z,100374.90
2019-05-21T07:52:43.534Z,100376.50
2019-05-21T07:55:35.039Z,100379.59
2019-05-21T07:58:25.829Z,100379.59
2019-05-21T08:01:16.642Z,100387.38
2019-05-21T08:04:07.370Z,100387.38
2019-05-21T08:06:58.053Z,100382.27
2019-05-21T08:09:48.793Z,100382.27
2019-05-21T08:12:40.170Z,100375.34
2019-05-21T08:15:31.270Z,100376.72
2019-05-21T08:18:22.498Z,100382.25
2019-05-21T08:21:13.222Z,100382.25
2019-05-21T08:24:04.282Z,100387.88
2019-05-21T08:26:55.146Z,100392.46
2019-05-21T08:29:45.912Z,100388.09
2019-05-21T08:32:36.332Z,100388.98
2019-05-21T08:35:27.252Z,100388.55
2019-05-21T08:38:18.114Z,100389.37
2019-05-21T08:41:08.955Z,100392.38
2019-05-21T08:43:59.805Z,100387.55
2019-05-21T08:46:50.666Z,100383.24
2019-05-21T08:49:44.181Z,100381.61
2019-05-21T08:52:33.869Z,100388.03
2019-05-21T08:55:24.364Z,100385.56
2019-05-21T08:58:14.954Z,100395.27
2019-05-21T09:01:05.374Z,100387.45
2019-05-21T09:03:56.501Z,100385.31
2019-05-21T09:06:47.160Z,100392.87
2019-05-21T09:09:49.438Z,100394.11
2019-05-21T09:12:30.528Z,100389.56
2019-05-21T09:15:21.472Z,100384.95
2019-05-21T09:18:12.262Z,100384.95
2019-05-21T09:21:03.104Z,100389.55
2019-05-21T09:23:53.939Z,100388.94
2019-05-21T09:26:44.930Z,100378.55
2019-05-21T09:29:35.845Z,100382.87
2019-05-21T09:32:26.434Z,100385.36
2019-05-21T09:35:17.036Z,100389.96
2019-05-21T09:38:08.056Z,100387.73
2019-05-21T09:40:58.651Z,100386.85
2019-05-21T09:43:49.295Z,100387.00
2019-05-21T09:46:40.163Z,100375.61
2019-05-21T09:49:32.209Z,100374.73
2019-05-21T09:52:23.174Z,100374.92
2019-05-21T09:55:13.951Z,100371.80
2019-05-21T09:58:23.413Z,100377.75
2019-05-21T10:01:25.914Z,100384.61
2019-05-21T10:04:16.704Z,100380.85
2019-05-21T10:07:07.612Z,100368.92
2019-05-21T10:09:58.534Z,100376.31
2019-05-21T10:12:49.389Z,100378.09
2019-05-21T10:15:40.220Z,100377.94
2019-05-21T10:18:30.827Z,100381.45
2019-05-21T10:21:21.606Z,100389.09
2019-05-21T10:24:12.422Z,100380.72
2019-05-21T10:27:03.684Z,100372.86
2019-05-21T10:29:56.465Z,100374.59
2019-05-21T10:32:47.375Z,100365.63
2019-05-21T10:35:38.108Z,100370.03
2019-05-21T10:38:29.079Z,100364.06
2019-05-21T10:41:20.176Z,100368.02
2019-05-21T10:44:11.036Z,100370.19
2019-05-21T10:47:01.665Z,100360.94
2019-05-21T10:49:52.478Z,100363.83
2019-05-21T10:52:43.224Z,100357.53
2019-05-21T10:55:34.029Z,100361.08
2019-05-21T10:58:24.893Z,100368.80
2019-05-21T11:01:31.181Z,100360.19
2019-05-21T11:04:33.594Z,100355.31
2019-05-21T11:07:24.339Z,100361.17
2019-05-21T11:10:15.290Z,100358.75
2019-05-21T11:13:06.097Z,100353.88
2019-05-21T11:16:00.306Z,100357.14
2019-05-21T11:18:55.110Z,100360.41
2019-05-21T11:21:51.687Z,100361.84
2019-05-21T11:24:43.663Z,100365.64
2019-05-21T11:27:34.682Z,100369.80
2019-05-21T11:30:25.216Z,100365.38
2019-05-21T11:33:15.882Z,100365.45
2019-05-21T11:36:06.332Z,100366.73
2019-05-21T11:38:57.262Z,100365.80
2019-05-21T11:41:48.070Z,100372.65
2019-05-21T11:44:38.753Z,100363.87
2019-05-21T11:47:29.749Z,100361.27
2019-05-21T11:50:20.815Z,100360.42
2019-05-21T11:53:11.745Z,100363.47
2019-05-21T11:56:02.643Z,100365.99
2019-05-21T11:58:54.364Z,100364.84
2019-05-21T12:01:45.110Z,100367.91
2019-05-21T12:04:35.860Z,100369.15
2019-05-21T12:07:26.434Z,100364.73
2019-05-21T12:10:16.994Z,100361.27
2019-05-21T12:13:07.657Z,100365.52
2019-05-21T12:15:58.580Z,100363.62
2019-05-21T12:18:49.445Z,100367.54
2019-05-21T12:21:40.207Z,100366.03
2019-05-21T12:24:31.130Z,100369.20
2019-05-21T12:27:22.014Z,100367.62
2019-05-21T12:30:12.924Z,100360.58
2019-05-21T12:33:03.995Z,100351.11
2019-05-21T12:35:54.832Z,100351.20
2019-05-21T12:38:45.786Z,100340.36
2019-05-21T12:41:36.467Z,100343.44
2019-05-21T12:44:27.090Z,100337.74
2019-05-21T12:47:17.759Z,100338.75
2019-05-21T12:50:08.301Z,100340.97
2019-05-21T12:52:59.198Z,100337.29
2019-05-21T12:55:50.020Z,100340.22
2019-05-21T12:58:40.872Z,100338.75
2019-05-21T13:01:31.764Z,100341.16
2019-05-21T13:04:22.346Z,100343.24
2019-05-21T13:07:12.899Z,100353.11
2019-05-21T13:10:03.864Z,100358.59
2019-05-21T13:12:54.799Z,100364.81
2019-05-21T13:15:46.965Z,100368.98
2019-05-21T13:18:37.887Z,100366.22
2019-05-21T13:21:28.962Z,100355.87
2019-05-21T13:24:20.003Z,100347.68
2019-05-21T13:27:10.820Z,100349.94
2019-05-21T13:30:01.673Z,100358.59
2019-05-21T13:32:54.430Z,100336.27
2019-05-21T13:35:44.999Z,100334.39
2019-05-21T13:38:35.949Z,100339.73
2019-05-21T13:41:26.488Z,100334.60
2019-05-21T13:44:17.851Z,100331.48
2019-05-21T13:47:08.640Z,100333.84
2019-05-21T13:49:59.258Z,100344.12
2019-05-21T13:52:49.923Z,100331.81
2019-05-21T13:55:41.065Z,100336.69
2019-05-21T13:58:31.634Z,100331.13
2019-05-21T14:01:39.219Z,100327.86
2019-05-21T14:04:14.912Z,100329.58
2019-05-21T14:07:05.601Z,100328.94
2019-05-21T14:10:13.528Z,100326.63
2019-05-21T14:12:48.666Z,100330.00
2019-05-21T14:15:39.681Z,100333.06
2019-05-21T14:18:30.937Z,100329.40
2019-05-21T14:21:21.974Z,100327.77
2019-05-21T14:24:12.622Z,100324.61
2019-05-21T14:27:03.417Z,100322.52
2019-05-21T14:29:54.291Z,100325.69
2019-05-21T14:32:44.763Z,100330.94
2019-05-21T14:35:35.791Z,100333.25
2019-05-21T14:38:26.638Z,100340.30
2019-05-21T14:41:17.652Z,100337.27
2019-05-21T14:44:08.472Z,100333.68
2019-05-21T14:46:59.435Z,100329.16
2019-05-21T14:49:50.313Z,100331.16
2019-05-21T14:52:41.199Z,100325.17
2019-05-21T14:55:31.720Z,100329.66
2019-05-21T14:58:22.516Z,100325.69
2019-05-21T15:01:13.247Z,100323.30
2019-05-21T15:04:04.451Z,100326.55
2019-05-21T15:06:55.104Z,100322.53
2019-05-21T15:09:46.052Z,100318.24
2019-05-21T15:12:36.781Z,100317.19
2019-05-21T15:15:27.596Z,100320.33
2019-05-21T15:18:22.041Z,100319.42
2019-05-21T15:21:38.820Z,100319.62
2019-05-21T15:24:29.548Z,100319.62
2019-05-21T15:27:20.210Z,100313.17
2019-05-21T15:30:11.047Z,100316.58
2019-05-21T15:33:01.684Z,100309.52
2019-05-21T15:35:52.670Z,100308.89
2019-05-21T15:38:49.906Z,100304.56
2019-05-21T15:41:35.809Z,100299.40
2019-05-21T15:44:26.584Z,100292.97
2019-05-21T15:47:17.421Z,100302.23
2019-05-21T15:50:08.362Z,100295.52
2019-05-21T15:52:59.191Z,100293.20
2019-05-21T15:55:49.772Z,100288.56
2019-05-21T15:58:40.530Z,100288.88
2019-05-21T16:01:31.103Z,100291.51
2019-05-21T16:04:21.633Z,100292.76
2019-05-21T16:07:12.584Z,100289.19
2019-05-21T16:10:03.112Z,100286.98
2019-05-21T16:12:54.727Z,100286.66
2019-05-21T16:15:45.565Z,100293.63
2019-05-21T16:18:37.326Z,100286.25
2019-05-21T16:21:28.068Z,100287.19
2019-05-21T16:24:18.918Z,100291.30
2019-05-21T16:27:09.672Z,100295.39
2019-05-21T16:30:00.793Z,100289.33
2019-05-21T16:32:51.712Z,100293.08
2019-05-21T16:35:42.717Z,100288.23
2019-05-21T16:38:33.622Z,100289.19
2019-05-21T16:41:24.952Z,100298.50
2019-05-21T16:44:16.724Z,100305.70
2019-05-21T16:47:07.652Z,100303.77
2019-05-21T16:49:58.454Z,100310.02
2019-05-21T16:52:48.599Z,100307.95
2019-05-21T16:55:38.910Z,100307.86
2019-05-21T16:58:29.158Z,100309.56
2019-05-21T17:01:19.428Z,100317.44
2019-05-21T17:04:09.907Z,100317.44
2019-05-21T17:07:00.312Z,100317.69
2019-05-21T17:09:50.718Z,100321.18
2019-05-21T17:12:41.124Z,100322.86
2019-05-21T17:15:31.373Z,100315.67
2019-05-21T17:18:21.331Z,100318.77
2019-05-21T17:21:11.718Z,100324.75
2019-05-21T17:24:01.651Z,100318.70
2019-05-21T17:26:51.782Z,100320.87
2019-05-21T17:29:42.164Z,100327.72
2019-05-21T17:32:32.437Z,100324.50
2019-05-21T17:35:22.949Z,100323.21
2019-05-21T17:38:13.141Z,100317.50
2019-05-21T17:41:03.300Z,100320.69
2019-05-21T17:43:53.553Z,100322.97
2019-05-21T17:46:43.749Z,100323.47
2019-05-21T17:49:34.032Z,100322.41
2019-05-21T17:52:24.170Z,100324.50
2019-05-21T17:55:14.286Z,100329.63
2019-05-21T17:58:04.252Z,100329.05
2019-05-21T18:00:59.916Z,100325.13
2019-05-21T18:03:50.100Z,100324.38
2019-05-21T18:06:41.124Z,100321.78
2019-05-21T18:09:32.043Z,100327.41
2019-05-21T18:12:31.671Z,100321.73
2019-05-21T18:15:13.965Z,100324.75
2019-05-21T18:18:05.271Z,100325.91
2019-05-21T18:20:56.206Z,100325.45
2019-05-21T18:23:46.802Z,100319.94
2019-05-21T18:26:37.287Z,100326.83
2019-05-21T18:29:27.776Z,100328.61
2019-05-21T18:32:17.966Z,100328.28
2019-05-21T18:35:07.967Z,100329.30
2019-05-21T18:37:58.078Z,100340.95
2019-05-21T18:40:48.211Z,100343.59
2019-05-21T18:43:38.639Z,100342.67
2019-05-21T18:46:28.739Z,100339.30
2019-05-21T18:49:19.140Z,100343.25
2019-05-21T18:52:09.352Z,100343.34
2019-05-21T18:54:59.560Z,100349.14
2019-05-21T18:57:49.625Z,100358.02
2019-05-21T19:00:39.909Z,100358.47
2019-05-21T19:03:30.054Z,100363.52
2019-05-21T19:06:20.399Z,100366.55
2019-05-21T19:09:10.550Z,100370.28
2019-05-21T19:12:00.813Z,100370.94
2019-05-21T19:14:51.332Z,100373.73
2019-05-21T19:17:41.776Z,100377.22
2019-05-21T19:20:34.451Z,100374.83
2019-05-21T19:23:25.067Z,100380.02
2019-05-21T19:26:15.647Z,100371.05
2019-05-21T19:29:07.898Z,100370.52
2019-05-21T19:31:58.273Z,100367.45
2019-05-21T19:34:48.622Z,100371.70
2019-05-21T19:37:38.843Z,100374.19
2019-05-21T19:40:29.176Z,100382.97
2019-05-21T19:43:19.595Z,100385.00
2019-05-21T19:46:09.876Z,100384.97
2019-05-21T19:49:00.390Z,100386.00
2019-05-21T19:51:50.618Z,100385.63
2019-05-21T19:54:41.308Z,100378.54
2019-05-21T19:57:33.664Z,100382.97
2019-05-21T20:00:27.081Z,100378.72
2019-05-21T20:03:17.420Z,100372.42
2019-05-21T20:06:10.141Z,100380.88
2019-05-21T20:09:00.875Z,100376.41
2019-05-21T20:11:52.706Z,100387.44
2019-05-21T20:14:43.199Z,100371.81
2019-05-21T20:17:34.074Z,100376.20
2019-05-21T20:20:24.673Z,100376.86
2019-05-21T20:23:16.530Z,100380.12
2019-05-21T20:26:08.058Z,100386.55
2019-05-21T20:28:58.482Z,100397.05
2019-05-21T20:31:48.788Z,100402.84
2019-05-21T20:34:40.506Z,100410.88
2019-05-21T20:37:32.196Z,100411.61
2019-05-21T20:40:23.994Z,100415.13
2019-05-21T20:43:14.293Z,100411.06
2019-05-21T20:46:04.785Z,100411.61
2019-05-21T20:48:55.411Z,100412.83
2019-05-21T20:51:46.194Z,100414.86
2019-05-21T20:54:38.378Z,100412.97
2019-05-21T20:57:29.436Z,100418.61
2019-05-21T21:00:23.002Z,100417.79
2019-05-21T21:03:13.929Z,100413.25
2019-05-21T21:06:04.428Z,100416.66
2019-05-21T21:08:55.135Z,100415.97
2019-05-21T21:11:46.058Z,100420.05
2019-05-21T21:14:36.434Z,100416.98
2019-05-21T21:17:26.614Z,100420.22
2019-05-21T21:20:16.645Z,100410.90
2019-05-21T21:23:06.873Z,100409.17
2019-05-21T21:25:57.883Z,100397.98
2019-05-21T21:28:47.929Z,100401.76
2019-05-21T21:31:38.169Z,100404.81
2019-05-21T21:34:28.437Z,100401.42
2019-05-21T21:37:18.825Z,100400.89
2019-05-21T21:40:12.190Z,100400.41
2019-05-21T21:43:02.598Z,100393.63
2019-05-21T21:45:53.130Z,100397.33
2019-05-21T21:48:45.555Z,100397.00
2019-05-21T21:51:36.468Z,100387.84
2019-05-21T21:54:26.969Z,100386.84
2019-05-21T21:57:17.213Z,100377.87
2019-05-21T22:00:17.575Z,100347.73
2019-05-21T22:03:10.559Z,100384.12
2019-05-21T22:06:01.354Z,100378.88
2019-05-21T22:08:51.693Z,100377.69
2019-05-21T22:11:42.241Z,100373.80
2019-05-21T22:14:49.172Z,100363.48
2019-05-21T22:17:26.406Z,100362.09
2019-05-21T22:20:17.297Z,100359.07
2019-05-21T22:23:09.011Z,100356.19
2019-05-21T22:25:59.347Z,100346.89
2019-05-21T22:28:49.767Z,100340.80
2019-05-21T22:31:41.051Z,100339.78
2019-05-21T22:34:31.148Z,100338.41
2019-05-21T22:37:23.854Z,100334.30
2019-05-21T22:40:14.202Z,100338.69
2019-05-21T22:43:04.400Z,100330.94
2019-05-21T22:45:54.713Z,100329.56
2019-05-21T22:48:44.911Z,100332.14
2019-05-21T22:51:35.292Z,100333.67
2019-05-21T22:54:25.622Z,100337.91
2019-05-21T22:57:15.905Z,100337.22
2019-05-21T23:00:06.842Z,100330.95
2019-05-21T23:02:57.263Z,100338.09
2019-05-21T23:05:47.598Z,100340.09
2019-05-21T23:08:37.977Z,100335.70
2019-05-21T23:11:27.968Z,100342.47
2019-05-21T23:14:18.611Z,100346.89
2019-05-21T23:17:10.175Z,100341.28
2019-05-21T23:20:17.285Z,100342.13
2019-05-21T23:23:09.985Z,100327.59
2019-05-21T23:26:00.259Z,100326.55
2019-05-21T23:28:50.809Z,100323.86
2019-05-21T23:31:41.053Z,100329.59
2019-05-21T23:34:31.471Z,100321.66
2019-05-21T23:37:22.137Z,100328.60
2019-05-21T23:40:13.577Z,100330.30
2019-05-21T23:43:04.174Z,100329.97
2019-05-21T23:45:54.565Z,100326.91
2019-05-21T23:48:44.893Z,100329.95
2019-05-21T23:51:35.993Z,100330.23
2019-05-21T23:54:26.321Z,100336.82
2019-05-21T23:57:21.094Z,100328.87
